createdAt,value
2018-06-07T00:00:42.241Z,82.64
2018-06-07T00:01:42.265Z,82.64
2018-06-07T00:02:42.287Z,82.54
2018-06-07T00:03:42.309Z,82.79
2018-06-07T00:04:42.334Z,82.83
2018-06-07T00:05:42.355Z,82.98
2018-06-07T00:06:42.379Z,82.60
2018-06-07T00:07:42.402Z,82.83
2018-06-07T00:08:42.424Z,82.89
2018-06-07T00:09:42.449Z,82.79
2018-06-07T00:10:42.469Z,82.98
2018-06-07T00:11:42.492Z,83.08
2018-06-07T00:12:42.514Z,82.89
2018-06-07T00:13:42.537Z,83.18
2018-06-07T00:14:42.560Z,83.37
2018-06-07T00:15:42.582Z,83.85
2018-06-07T00:16:42.605Z,83.28
2018-06-07T00:17:42.626Z,83.56
2018-06-07T00:18:42.653Z,83.56
2018-06-07T00:19:42.673Z,83.37
2018-06-07T00:20:42.694Z,83.37
2018-06-07T00:21:42.718Z,83.56
2018-06-07T00:22:42.742Z,83.47
2018-06-07T00:23:42.764Z,83.75
2018-06-07T00:24:42.785Z,83.85
2018-06-07T00:25:42.808Z,83.75
2018-06-07T00:26:42.831Z,83.75
2018-06-07T00:27:42.854Z,83.66
2018-06-07T00:28:42.875Z,83.85
2018-06-07T00:29:42.898Z,83.95
2018-06-07T00:30:42.922Z,83.95
2018-06-07T00:31:42.945Z,84.23
2018-06-07T00:32:42.967Z,84.29
2018-06-07T00:33:42.988Z,84.67
2018-06-07T00:34:43.012Z,84.48
2018-06-07T00:35:43.035Z,84.29
2018-06-07T00:36:43.060Z,84.39
2018-06-07T00:37:43.078Z,84.39
2018-06-07T00:38:43.105Z,84.58
2018-06-07T00:39:43.124Z,84.39
2018-06-07T00:40:43.146Z,84.39
2018-06-07T00:41:43.170Z,84.67
2018-06-07T00:42:43.193Z,84.48
2018-06-07T00:43:43.215Z,84.87
2018-06-07T00:44:43.237Z,84.77
2018-06-07T00:45:43.260Z,84.87
2018-06-07T00:46:43.285Z,84.67
2018-06-07T00:47:43.305Z,84.87
2018-06-07T00:48:43.326Z,84.77
2018-06-07T00:49:43.349Z,84.67
2018-06-07T00:50:43.373Z,84.87
2018-06-07T00:51:43.395Z,84.58
2018-06-07T00:52:43.416Z,84.87
2018-06-07T00:53:43.440Z,84.87
2018-06-07T00:54:43.463Z,85.16
2018-06-07T00:55:43.485Z,85.35
2018-06-07T00:56:43.507Z,85.64
2018-06-07T00:57:43.530Z,85.54
2018-06-07T00:58:43.556Z,85.64
2018-06-07T00:59:43.574Z,85.54
2018-06-07T01:00:43.597Z,85.25
2018-06-07T01:01:43.618Z,85.83
2018-06-07T01:02:43.641Z,85.64
2018-06-07T01:03:43.665Z,85.74
2018-06-07T01:04:43.686Z,85.83
2018-06-07T01:05:43.708Z,85.64
2018-06-07T01:06:43.736Z,85.93
2018-06-07T01:07:43.753Z,85.74
2018-06-07T01:08:43.776Z,86.02
2018-06-07T01:09:43.798Z,85.74
2018-06-07T01:10:43.820Z,86.02
2018-06-07T01:11:43.844Z,85.98
2018-06-07T01:12:43.864Z,85.83
2018-06-07T01:13:43.888Z,86.08
2018-06-07T01:14:43.912Z,86.12
2018-06-07T01:15:43.935Z,86.08
2018-06-07T01:16:43.956Z,86.36
2018-06-07T01:17:43.978Z,86.41
2018-06-07T01:18:44.001Z,86.27
2018-06-07T01:19:44.022Z,85.93
2018-06-07T01:20:44.043Z,85.98
2018-06-07T01:21:44.067Z,86.22
2018-06-07T01:22:44.089Z,86.22
2018-06-07T01:23:44.113Z,86.18
2018-06-07T01:24:44.133Z,86.36
2018-06-07T01:25:44.156Z,86.08
2018-06-07T01:26:44.181Z,86.36
2018-06-07T01:27:44.201Z,85.88
2018-06-07T01:28:44.224Z,86.12
2018-06-07T01:29:44.246Z,85.88
2018-06-07T01:30:44.267Z,86.18
2018-06-07T01:31:44.291Z,85.98
2018-06-07T01:32:44.315Z,86.46
2018-06-07T01:33:44.334Z,85.78
2018-06-07T01:34:44.358Z,85.93
2018-06-07T01:35:44.380Z,86.31
2018-06-07T01:36:44.401Z,85.74
2018-06-07T01:37:44.431Z,86.22
2018-06-07T01:38:44.445Z,85.78
2018-06-07T01:39:44.469Z,85.93
2018-06-07T01:40:44.490Z,85.60
2018-06-07T01:41:44.514Z,85.74
2018-06-07T01:42:44.535Z,85.83
2018-06-07T01:43:44.657Z,85.69
2018-06-07T01:44:44.583Z,86.31
2018-06-07T01:45:44.601Z,85.60
2018-06-07T01:46:44.625Z,85.60
2018-06-07T01:47:44.647Z,85.69
2018-06-07T01:48:44.668Z,85.69
2018-06-07T01:49:44.691Z,85.69
2018-06-07T01:50:44.714Z,85.93
2018-06-07T01:51:44.736Z,85.88
2018-06-07T01:52:44.762Z,85.93
2018-06-07T01:53:44.780Z,85.64
2018-06-07T01:54:44.802Z,85.78
2018-06-07T01:55:44.824Z,85.50
2018-06-07T01:56:44.846Z,85.88
2018-06-07T01:57:44.869Z,85.60
2018-06-07T01:58:44.892Z,85.50
2018-06-07T01:59:44.914Z,85.50
2018-06-07T02:00:44.935Z,85.64
2018-06-07T02:01:44.960Z,85.88
2018-06-07T02:02:44.981Z,85.54
2018-06-07T02:03:45.008Z,85.74
2018-06-07T02:04:45.026Z,85.74
2018-06-07T02:05:45.049Z,85.74
2018-06-07T02:06:45.071Z,85.78
2018-06-07T02:07:45.092Z,85.98
2018-06-07T02:08:45.114Z,86.08
2018-06-07T02:09:45.141Z,85.40
2018-06-07T02:10:45.161Z,85.93
2018-06-07T02:11:45.182Z,85.54
2018-06-07T02:12:45.207Z,85.74
2018-06-07T02:13:45.226Z,85.54
2018-06-07T02:14:45.248Z,86.02
2018-06-07T02:15:45.270Z,85.93
2018-06-07T02:16:45.293Z,85.40
2018-06-07T02:17:45.314Z,85.93
2018-06-07T02:18:45.337Z,85.78
2018-06-07T02:19:45.360Z,85.40
2018-06-07T02:20:45.380Z,86.02
2018-06-07T02:21:45.403Z,85.88
2018-06-07T02:22:45.427Z,85.40
2018-06-07T02:23:45.449Z,85.93
2018-06-07T02:24:45.471Z,85.69
2018-06-07T02:25:45.494Z,85.69
2018-06-07T02:26:45.515Z,85.69
2018-06-07T02:27:45.538Z,85.69
2018-06-07T02:28:45.560Z,85.88
2018-06-07T02:29:45.582Z,85.98
2018-06-07T02:30:45.604Z,85.88
2018-06-07T02:31:45.628Z,86.08
2018-06-07T02:32:45.649Z,86.08
2018-06-07T02:33:45.671Z,86.18
2018-06-07T02:34:45.694Z,86.75
2018-06-07T02:35:45.715Z,86.46
2018-06-07T02:36:45.743Z,86.46
2018-06-07T02:37:45.759Z,86.46
2018-06-07T02:38:45.784Z,86.56
2018-06-07T02:39:45.806Z,86.36
2018-06-07T02:40:45.828Z,86.27
2018-06-07T02:41:45.849Z,86.36
2018-06-07T02:42:45.872Z,86.36
2018-06-07T02:43:45.893Z,86.85
2018-06-07T02:44:45.914Z,86.36
2018-06-07T02:45:45.936Z,86.65
2018-06-07T02:46:45.960Z,86.75
2018-06-07T02:47:45.985Z,87.23
2018-06-07T02:48:46.004Z,87.04
2018-06-07T02:49:46.027Z,86.75
2018-06-07T02:50:46.048Z,86.56
2018-06-07T02:51:46.070Z,87.33
2018-06-07T02:52:46.093Z,87.04
2018-06-07T02:53:46.163Z,86.94
2018-06-07T02:54:46.139Z,87.13
2018-06-07T02:55:46.159Z,87.04
2018-06-07T02:56:46.180Z,87.23
2018-06-07T02:57:46.202Z,86.85
2018-06-07T02:58:46.225Z,87.09
2018-06-07T02:59:46.248Z,87.09
2018-06-07T03:00:46.268Z,86.80
2018-06-07T03:01:46.291Z,86.90
2018-06-07T03:02:46.313Z,86.80
2018-06-07T03:03:46.338Z,87.09
2018-06-07T03:04:46.358Z,87.23
2018-06-07T03:05:46.381Z,87.19
2018-06-07T03:06:46.402Z,87.23
2018-06-07T03:07:46.424Z,87.71
2018-06-07T03:08:46.446Z,87.29
2018-06-07T03:09:46.467Z,87.71
2018-06-07T03:10:46.490Z,87.38
2018-06-07T03:11:46.513Z,87.19
2018-06-07T03:12:46.536Z,87.57
2018-06-07T03:13:46.557Z,87.67
2018-06-07T03:14:46.579Z,87.76
2018-06-07T03:15:46.600Z,87.76
2018-06-07T03:16:46.623Z,87.67
2018-06-07T03:17:46.645Z,87.57
2018-06-07T03:18:46.670Z,87.09
2018-06-07T03:19:46.689Z,87.57
2018-06-07T03:20:46.710Z,87.67
2018-06-07T03:21:46.733Z,87.48
2018-06-07T03:22:46.755Z,87.76
2018-06-07T03:23:46.776Z,87.67
2018-06-07T03:24:46.798Z,88.15
2018-06-07T03:25:46.821Z,87.86
2018-06-07T03:26:46.844Z,87.96
2018-06-07T03:27:46.867Z,88.53
2018-06-07T03:28:46.887Z,87.86
2018-06-07T03:29:46.909Z,88.34
2018-06-07T03:30:46.931Z,88.24
2018-06-07T03:31:46.954Z,88.34
2018-06-07T03:32:46.976Z,88.24
2018-06-07T03:33:46.998Z,88.15
2018-06-07T03:34:47.020Z,88.24
2018-06-07T03:35:47.041Z,88.06
2018-06-07T03:36:47.063Z,88.24
2018-06-07T03:37:47.086Z,88.24
2018-06-07T03:38:47.108Z,88.15
2018-06-07T03:39:47.130Z,88.63
2018-06-07T03:40:47.152Z,88.24
2018-06-07T03:41:47.173Z,88.63
2018-06-07T03:42:47.200Z,88.63
2018-06-07T03:43:47.219Z,88.53
2018-06-07T03:44:47.240Z,88.44
2018-06-07T03:45:47.261Z,88.15
2018-06-07T03:46:47.285Z,88.53
2018-06-07T03:47:47.316Z,88.06
2018-06-07T03:48:47.328Z,88.34
2018-06-07T03:49:47.350Z,88.15
2018-06-07T03:50:47.372Z,88.06
2018-06-07T03:51:47.394Z,88.15
2018-06-07T03:52:47.472Z,88.44
2018-06-07T03:53:47.438Z,88.34
2018-06-07T03:54:47.460Z,88.06
2018-06-07T03:55:47.481Z,89.01
2018-06-07T03:56:47.504Z,88.15
2018-06-07T03:57:47.525Z,88.92
2018-06-07T03:58:47.548Z,88.73
2018-06-07T03:59:47.572Z,88.15
2018-06-07T04:00:47.602Z,88.15
2018-06-07T04:01:47.614Z,88.24
2018-06-07T04:02:47.635Z,87.86
2018-06-07T04:03:47.657Z,87.96
2018-06-07T04:04:47.679Z,87.76
2018-06-07T04:05:47.702Z,87.67
2018-06-07T04:06:47.724Z,87.67
2018-06-07T04:07:47.748Z,87.67
2018-06-07T04:08:47.768Z,87.76
2018-06-07T04:09:47.790Z,87.19
2018-06-07T04:10:47.812Z,87.67
2018-06-07T04:11:47.835Z,87.29
2018-06-07T04:12:47.855Z,87.48
2018-06-07T04:13:47.879Z,86.99
2018-06-07T04:14:47.900Z,87.48
2018-06-07T04:15:47.922Z,87.19
2018-06-07T04:16:47.943Z,87.86
2018-06-07T04:17:47.967Z,87.19
2018-06-07T04:18:47.986Z,87.09
2018-06-07T04:19:48.009Z,86.90
2018-06-07T04:20:48.032Z,87.19
2018-06-07T04:21:48.053Z,86.99
2018-06-07T04:22:48.076Z,87.29
2018-06-07T04:23:48.097Z,86.99
2018-06-07T04:24:48.119Z,86.52
2018-06-07T04:25:48.142Z,86.99
2018-06-07T04:26:48.163Z,87.19
2018-06-07T04:27:48.189Z,86.80
2018-06-07T04:28:48.208Z,87.09
2018-06-07T04:29:48.229Z,86.99
2018-06-07T04:30:48.252Z,86.52
2018-06-07T04:31:48.275Z,86.90
2018-06-07T04:32:48.295Z,86.90
2018-06-07T04:33:48.317Z,86.52
2018-06-07T04:34:48.341Z,86.36
2018-06-07T04:35:48.362Z,86.46
2018-06-07T04:36:48.390Z,86.56
2018-06-07T04:37:48.409Z,86.46
2018-06-07T04:38:48.429Z,86.36
2018-06-07T04:39:48.451Z,86.65
2018-06-07T04:40:48.472Z,86.52
2018-06-07T04:41:48.494Z,86.46
2018-06-07T04:42:48.517Z,85.98
2018-06-07T04:43:48.555Z,85.88
2018-06-07T04:44:48.560Z,86.08
2018-06-07T04:45:48.583Z,86.27
2018-06-07T04:46:48.605Z,85.88
2018-06-07T04:47:48.628Z,85.69
2018-06-07T04:48:48.649Z,85.06
2018-06-07T04:49:48.671Z,84.73
2018-06-07T04:50:48.695Z,84.87
2018-06-07T04:51:48.716Z,83.91
2018-06-07T04:52:48.737Z,83.62
2018-06-07T04:53:48.762Z,83.52
2018-06-07T04:54:48.783Z,82.94
2018-06-07T04:55:48.806Z,83.42
2018-06-07T04:56:48.827Z,82.65
2018-06-07T04:57:48.849Z,82.21
2018-06-07T04:58:48.871Z,82.31
2018-06-07T04:59:48.895Z,81.93
2018-06-07T05:00:48.916Z,81.73
2018-06-07T05:01:48.939Z,81.45
2018-06-07T05:02:48.961Z,81.16
2018-06-07T05:03:48.983Z,80.68
2018-06-07T05:04:49.006Z,80.68
2018-06-07T05:05:49.029Z,81.06
2018-06-07T05:06:49.102Z,80.96
2018-06-07T05:07:49.074Z,81.45
2018-06-07T05:08:49.095Z,81.06
2018-06-07T05:09:49.119Z,81.45
2018-06-07T05:10:49.144Z,81.35
2018-06-07T05:11:49.165Z,81.45
2018-06-07T05:12:49.188Z,81.01
2018-06-07T05:13:49.209Z,80.71
2018-06-07T05:14:49.233Z,80.52
2018-06-07T05:15:49.255Z,80.52
2018-06-07T05:16:49.278Z,80.81
2018-06-07T05:17:49.301Z,80.87
2018-06-07T05:18:49.325Z,81.16
2018-06-07T05:19:49.346Z,81.54
2018-06-07T05:20:49.371Z,81.06
2018-06-07T05:21:49.392Z,80.62
2018-06-07T05:22:49.416Z,80.52
2018-06-07T05:23:49.440Z,80.91
2018-06-07T05:24:49.530Z,80.91
2018-06-07T05:25:49.484Z,80.71
2018-06-07T05:26:49.508Z,81.39
2018-06-07T05:27:49.532Z,80.96
2018-06-07T05:28:49.556Z,82.12
2018-06-07T05:29:49.577Z,82.31
2018-06-07T05:30:49.609Z,82.31
2018-06-07T05:31:49.623Z,81.87
2018-06-07T05:32:49.646Z,80.81
2018-06-07T05:33:49.668Z,79.69
2018-06-07T05:34:49.693Z,78.92
2018-06-07T05:35:49.716Z,78.92
2018-06-07T05:36:49.739Z,79.06
2018-06-07T05:37:49.761Z,78.19
2018-06-07T05:38:49.829Z,77.71
2018-06-07T05:39:49.809Z,77.46
2018-06-07T05:40:49.830Z,76.98
2018-06-07T05:41:49.855Z,76.88
2018-06-07T05:42:49.881Z,77.23
2018-06-07T05:43:49.901Z,77.33
2018-06-07T05:44:49.927Z,77.23
2018-06-07T05:45:49.951Z,77.61
2018-06-07T05:46:49.974Z,77.51
2018-06-07T05:47:49.996Z,77.17
2018-06-07T05:48:50.018Z,76.78
2018-06-07T05:49:50.043Z,75.95
2018-06-07T05:50:50.067Z,75.47
2018-06-07T05:51:50.096Z,74.64
2018-06-07T05:52:50.113Z,74.06
2018-06-07T05:53:50.137Z,73.42
2018-06-07T05:54:50.161Z,73.03
2018-06-07T05:55:50.227Z,72.45
2018-06-07T05:56:50.207Z,71.97
2018-06-07T05:57:50.231Z,72.26
2018-06-07T05:58:50.256Z,72.00
2018-06-07T05:59:50.297Z,71.78
2018-06-07T06:00:50.304Z,72.26
2018-06-07T06:01:50.328Z,72.06
2018-06-07T06:02:50.360Z,72.42
2018-06-07T06:03:50.394Z,73.58
2018-06-07T06:04:50.402Z,73.38
2018-06-07T06:05:50.426Z,73.28
2018-06-07T06:06:50.451Z,73.32
2018-06-07T06:07:50.475Z,73.58
2018-06-07T06:08:50.502Z,73.42
2018-06-07T06:09:50.545Z,73.13
2018-06-07T06:10:50.549Z,72.94
2018-06-07T06:11:50.574Z,72.64
2018-06-07T06:12:50.597Z,73.38
2018-06-07T06:13:50.624Z,73.22
2018-06-07T06:14:50.649Z,73.86
2018-06-07T06:15:50.673Z,74.06
2018-06-07T06:16:50.698Z,74.25
2018-06-07T06:17:50.722Z,74.25
2018-06-07T06:18:50.745Z,74.35
2018-06-07T06:19:50.770Z,74.29
2018-06-07T06:20:50.796Z,74.06
2018-06-07T06:21:50.821Z,74.77
2018-06-07T06:22:50.846Z,73.65
2018-06-07T06:23:50.871Z,72.30
2018-06-07T06:24:50.895Z,72.06
2018-06-07T06:25:50.919Z,72.64
2018-06-07T06:26:50.945Z,72.20
2018-06-07T06:27:51.012Z,72.58
2018-06-07T06:28:50.994Z,72.58
2018-06-07T06:29:51.019Z,71.84
2018-06-07T06:30:51.044Z,70.82
2018-06-07T06:31:51.071Z,70.53
2018-06-07T06:32:51.094Z,70.34
2018-06-07T06:33:51.120Z,69.98
2018-06-07T06:34:51.146Z,69.46
2018-06-07T06:35:51.172Z,69.75
2018-06-07T06:36:51.197Z,68.53
2018-06-07T06:37:51.221Z,67.50
2018-06-07T06:38:51.247Z,67.05
2018-06-07T06:39:51.273Z,66.75
2018-06-07T06:40:51.300Z,66.79
2018-06-07T06:41:51.326Z,66.47
2018-06-07T06:42:51.350Z,66.95
2018-06-07T06:43:51.376Z,67.30
2018-06-07T06:44:51.402Z,67.88
2018-06-07T06:45:51.427Z,67.53
2018-06-07T06:46:51.454Z,66.37
2018-06-07T06:47:51.482Z,66.11
2018-06-07T06:48:51.507Z,65.43
2018-06-07T06:49:51.534Z,64.98
2018-06-07T06:50:51.560Z,65.34
2018-06-07T06:51:51.586Z,65.69
2018-06-07T06:52:51.613Z,65.89
2018-06-07T06:53:51.642Z,66.08
2018-06-07T06:54:51.666Z,66.11
2018-06-07T06:55:51.694Z,65.08
2018-06-07T06:56:51.721Z,63.82
2018-06-07T06:57:51.747Z,63.36
2018-06-07T06:58:51.774Z,62.68
2018-06-07T06:59:51.801Z,62.32
2018-06-07T07:00:51.829Z,62.49
2018-06-07T07:01:51.857Z,62.32
2018-06-07T07:02:51.885Z,61.94
2018-06-07T07:03:51.913Z,62.32
2018-06-07T07:04:51.941Z,61.94
2018-06-07T07:05:51.968Z,61.09
2018-06-07T07:06:51.995Z,60.41
2018-06-07T07:07:52.023Z,60.74
2018-06-07T07:08:52.050Z,60.44
2018-06-07T07:12:09.720Z,60.44
2018-06-07T07:12:36.168Z,59.47
2018-06-07T07:13:36.197Z,60.90
2018-06-07T07:14:36.225Z,61.00
2018-06-07T07:15:36.253Z,62.26
2018-06-07T07:16:36.282Z,61.58
2018-06-07T07:17:36.311Z,60.83
2018-06-07T07:18:36.339Z,60.18
2018-06-07T07:19:36.368Z,61.32
2018-06-07T07:20:36.397Z,61.54
2018-06-07T07:21:36.426Z,61.54
2018-06-07T07:22:36.454Z,60.21
2018-06-07T07:23:36.485Z,59.92
2018-06-07T07:24:36.514Z,59.56
2018-06-07T07:25:36.545Z,58.42
2018-06-07T07:26:36.571Z,57.93
2018-06-07T07:27:36.602Z,58.65
2018-06-07T07:28:36.630Z,59.59
2018-06-07T07:29:36.660Z,61.29
2018-06-07T07:30:36.689Z,64.53
2018-06-07T07:31:36.718Z,63.91
2018-06-07T07:32:36.748Z,63.26
2018-06-07T07:33:36.777Z,62.38
2018-06-07T07:34:36.861Z,61.15
2018-06-07T07:35:36.835Z,61.15
2018-06-07T07:36:36.866Z,59.85
2018-06-07T07:37:36.894Z,59.66
2018-06-07T07:38:36.923Z,58.39
2018-06-07T07:39:36.952Z,59.00
2018-06-07T07:40:36.983Z,59.66
2018-06-07T07:41:37.013Z,60.21
2018-06-07T07:42:37.042Z,61.44
2018-06-07T07:43:37.071Z,61.64
2018-06-07T07:44:37.102Z,61.28
2018-06-07T07:45:37.132Z,60.21
2018-06-07T07:46:37.161Z,61.28
2018-06-07T07:47:37.193Z,61.28
2018-06-07T07:48:37.221Z,60.47
2018-06-07T07:49:37.255Z,61.44
2018-06-07T07:50:37.280Z,61.35
2018-06-07T07:51:37.310Z,61.67
2018-06-07T07:52:37.344Z,61.47
2018-06-07T07:53:37.371Z,61.74
2018-06-07T07:54:37.399Z,62.19
2018-06-07T07:55:37.429Z,62.41
2018-06-07T07:56:37.459Z,62.32
2018-06-07T07:57:37.491Z,61.67
2018-06-07T07:58:37.518Z,61.28
2018-06-07T07:59:37.548Z,60.34
2018-06-07T08:00:37.578Z,59.95
2018-06-07T08:01:37.609Z,59.85
2018-06-07T08:02:37.637Z,60.14
2018-06-07T08:03:37.668Z,61.51
2018-06-07T08:04:37.702Z,60.27
2018-06-07T08:05:37.776Z,59.30
2018-06-07T08:06:37.756Z,59.39
2018-06-07T08:07:37.786Z,58.51
2018-06-07T08:08:37.817Z,58.61
2018-06-07T08:09:37.852Z,59.03
2018-06-07T08:10:37.874Z,58.51
2018-06-07T08:11:37.905Z,58.54
2018-06-07T08:12:37.936Z,59.10
2018-06-07T08:13:37.966Z,58.84
2018-06-07T08:14:37.994Z,58.45
2018-06-07T08:15:38.026Z,56.82
2018-06-07T08:16:38.055Z,55.97
2018-06-07T08:17:38.086Z,56.65
2018-06-07T08:18:38.114Z,55.80
2018-06-07T08:19:38.146Z,54.93
2018-06-07T08:20:38.176Z,55.05
2018-06-07T08:21:38.207Z,54.27
2018-06-07T08:22:38.235Z,53.81
2018-06-07T08:23:38.267Z,53.97
2018-06-07T08:24:38.298Z,53.61
2018-06-07T08:25:38.331Z,54.07
2018-06-07T08:26:38.359Z,53.52
2018-06-07T08:27:38.391Z,53.58
2018-06-07T08:28:38.422Z,54.07
2018-06-07T08:29:38.452Z,54.17
2018-06-07T08:30:38.483Z,53.52
2018-06-07T08:31:38.514Z,52.83
2018-06-07T08:32:38.545Z,52.66
2018-06-07T08:33:38.578Z,51.68
2018-06-07T08:34:38.614Z,51.88
2018-06-07T08:35:38.640Z,51.59
2018-06-07T08:36:38.671Z,51.59
2018-06-07T08:37:38.703Z,51.46
2018-06-07T08:38:38.733Z,51.98
2018-06-07T08:39:38.785Z,51.03
2018-06-07T08:40:38.797Z,50.73
2018-06-07T08:41:38.829Z,50.37
2018-06-07T08:42:38.860Z,51.32
2018-06-07T08:43:38.893Z,51.90
2018-06-07T08:44:38.953Z,51.22
2018-06-07T08:45:38.957Z,51.42
2018-06-07T08:46:38.988Z,51.81
2018-06-07T08:47:39.020Z,51.32
2018-06-07T08:48:39.056Z,50.49
2018-06-07T08:49:39.084Z,49.90
2018-06-07T08:50:39.116Z,49.31
2018-06-07T08:51:39.149Z,48.75
2018-06-07T08:52:39.181Z,48.87
2018-06-07T08:53:39.214Z,48.38
2018-06-07T08:54:39.245Z,48.16
2018-06-07T08:55:39.277Z,49.14
2018-06-07T08:56:39.311Z,48.75
2018-06-07T08:57:39.342Z,49.43
2018-06-07T08:58:39.375Z,49.51
2018-06-07T08:59:39.407Z,49.87
2018-06-07T09:00:39.440Z,49.87
2018-06-07T09:01:39.473Z,49.87
2018-06-07T09:02:39.527Z,51.49
2018-06-07T09:03:39.544Z,52.00
2018-06-07T09:04:39.570Z,50.73
2018-06-07T09:05:39.602Z,50.76
2018-06-07T09:06:39.634Z,51.54
2018-06-07T09:07:39.667Z,50.66
2018-06-07T09:08:39.704Z,50.66
2018-06-07T09:09:39.733Z,50.85
2018-06-07T09:10:39.764Z,50.02
2018-06-07T09:11:39.798Z,49.82
2018-06-07T09:12:39.830Z,48.55
2018-06-07T09:13:39.864Z,49.51
2018-06-07T09:14:39.894Z,49.97
2018-06-07T09:15:39.931Z,49.38
2018-06-07T09:16:39.961Z,49.85
2018-06-07T09:17:40.014Z,50.27
2018-06-07T09:18:40.028Z,51.00
2018-06-07T09:19:40.057Z,51.49
2018-06-07T09:20:40.090Z,52.64
2018-06-07T09:21:40.123Z,51.76
2018-06-07T09:22:40.157Z,50.81
2018-06-07T09:23:40.187Z,51.22
2018-06-07T09:24:40.223Z,51.61
2018-06-07T09:25:40.253Z,50.78
2018-06-07T09:26:40.285Z,48.38
2018-06-07T09:27:40.319Z,48.01
2018-06-07T09:28:40.366Z,46.64
2018-06-07T09:29:40.382Z,46.08
2018-06-07T09:30:40.414Z,46.37
2018-06-07T09:31:40.450Z,46.27
2018-06-07T09:32:40.480Z,46.86
2018-06-07T09:33:40.512Z,46.27
2018-06-07T09:34:40.544Z,45.12
2018-06-07T09:35:40.577Z,43.72
2018-06-07T09:36:40.609Z,42.18
2018-06-07T09:37:40.643Z,42.10
2018-06-07T09:38:40.676Z,41.21
2018-06-07T09:39:40.710Z,41.80
2018-06-07T09:40:40.742Z,42.10
2018-06-07T09:41:40.775Z,42.10
2018-06-07T09:42:40.806Z,43.27
2018-06-07T09:43:40.842Z,43.76
2018-06-07T09:44:40.872Z,43.39
2018-06-07T09:45:40.906Z,41.92
2018-06-07T09:46:40.938Z,41.53
2018-06-07T09:47:40.971Z,42.41
2018-06-07T09:48:41.004Z,44.31
2018-06-07T09:49:41.038Z,45.56
2018-06-07T09:50:41.069Z,45.66
2018-06-07T09:51:41.103Z,46.62
2018-06-07T09:52:41.187Z,47.13
2018-06-07T09:53:41.170Z,46.54
2018-06-07T09:54:41.205Z,47.13
2018-06-07T09:55:41.235Z,46.95
2018-06-07T09:56:41.270Z,46.10
2018-06-07T09:57:41.305Z,45.51
2018-06-07T09:58:41.335Z,46.30
2018-06-07T09:59:41.368Z,45.51
2018-06-07T10:00:41.415Z,45.51
2018-06-07T10:01:41.434Z,46.30
2018-06-07T10:02:41.467Z,46.10
2018-06-07T10:03:41.562Z,45.70
2018-06-07T10:04:41.533Z,46.22
2018-06-07T10:05:41.566Z,44.96
2018-06-07T10:06:41.600Z,45.36
2018-06-07T10:07:41.632Z,45.04
2018-06-07T10:08:41.666Z,45.14
2018-06-07T10:09:41.700Z,45.24
2018-06-07T10:10:41.734Z,45.34
2018-06-07T10:11:41.765Z,45.06
2018-06-07T10:12:41.798Z,44.89
2018-06-07T10:13:41.833Z,44.30
2018-06-07T10:14:41.866Z,44.67
2018-06-07T10:15:41.898Z,44.87
2018-06-07T10:16:41.933Z,44.77
2018-06-07T10:17:41.969Z,44.69
2018-06-07T10:18:41.998Z,44.42
2018-06-07T10:19:42.033Z,43.55
2018-06-07T10:20:42.066Z,43.85
2018-06-07T10:21:42.106Z,43.55
2018-06-07T10:22:42.131Z,44.32
2018-06-07T10:23:42.165Z,44.32
2018-06-07T10:24:42.199Z,43.80
2018-06-07T10:25:42.232Z,44.87
2018-06-07T10:26:42.264Z,45.61
2018-06-07T10:27:42.298Z,46.27
2018-06-07T10:28:42.332Z,46.10
2018-06-07T10:29:42.365Z,46.00
2018-06-07T10:30:42.398Z,45.14
2018-06-07T10:31:42.432Z,44.45
2018-06-07T10:32:42.467Z,44.87
2018-06-07T10:33:42.500Z,45.06
2018-06-07T10:34:42.532Z,45.09
2018-06-07T10:35:42.565Z,45.28
2018-06-07T10:36:42.601Z,45.85
2018-06-07T10:37:42.634Z,47.25
2018-06-07T10:38:42.666Z,46.78
2018-06-07T10:39:42.747Z,46.31
2018-06-07T10:40:42.764Z,45.38
2018-06-07T10:41:42.766Z,44.69
2018-06-07T10:42:42.800Z,44.32
2018-06-07T10:43:42.834Z,44.32
2018-06-07T10:44:42.868Z,44.32
2018-06-07T10:45:42.901Z,43.65
2018-06-07T10:46:42.934Z,43.02
2018-06-07T10:47:42.968Z,44.27
2018-06-07T10:48:43.001Z,44.65
2018-06-07T10:49:43.034Z,46.39
2018-06-07T10:50:43.067Z,46.39
2018-06-07T10:51:43.105Z,45.90
2018-06-07T10:52:43.133Z,46.31
2018-06-07T10:53:43.167Z,45.38
2018-06-07T10:54:43.200Z,45.55
2018-06-07T10:55:43.234Z,45.09
2018-06-07T10:56:43.269Z,44.77
2018-06-07T10:57:43.300Z,44.89
2018-06-07T10:58:43.333Z,43.65
2018-06-07T10:59:43.366Z,42.20
2018-06-07T11:00:43.402Z,41.61
2018-06-07T11:01:43.434Z,41.33
2018-06-07T11:02:43.466Z,40.08
2018-06-07T11:03:43.502Z,39.68
2018-06-07T11:04:43.534Z,40.88
2018-06-07T11:05:43.569Z,43.19
2018-06-07T11:06:43.601Z,43.41
2018-06-07T11:07:43.635Z,43.24
2018-06-07T11:08:43.670Z,43.06
2018-06-07T11:09:43.705Z,41.59
2018-06-07T11:10:43.735Z,43.06
2018-06-07T11:11:43.768Z,41.61
2018-06-07T11:12:43.803Z,42.00
2018-06-07T11:13:43.837Z,41.24
2018-06-07T11:14:43.870Z,41.33
2018-06-07T11:15:43.903Z,40.64
2018-06-07T11:16:43.939Z,41.41
2018-06-07T11:17:43.970Z,41.80
2018-06-07T11:18:44.002Z,42.40
2018-06-07T11:19:44.037Z,41.02
2018-06-07T11:20:44.072Z,40.84
2018-06-07T11:21:44.104Z,40.45
2018-06-07T11:22:44.136Z,40.45
2018-06-07T11:23:45.961Z,40.94
2018-06-07T11:24:44.206Z,40.86
2018-06-07T11:25:44.237Z,40.55
2018-06-07T11:26:44.271Z,41.19
2018-06-07T11:30:27.559Z,40.21
2018-06-07T11:30:28.406Z,41.39
2018-06-07T11:31:28.485Z,41.00
2018-06-07T11:32:28.471Z,40.90
2018-06-07T11:33:28.505Z,40.72
2018-06-07T11:34:28.540Z,39.86
2018-06-07T11:35:28.572Z,39.26
2018-06-07T11:36:28.606Z,39.17
2018-06-07T11:37:28.639Z,40.13
2018-06-07T11:38:28.674Z,39.66
2018-06-07T11:39:28.708Z,39.84
2018-06-07T11:40:28.740Z,39.95
2018-06-07T11:41:28.773Z,40.23
2018-06-07T11:42:28.807Z,41.04
2018-06-07T11:43:28.844Z,40.72
2018-06-07T11:44:28.875Z,41.09
2018-06-07T11:45:28.913Z,41.22
2018-06-07T11:46:28.942Z,41.02
2018-06-07T11:47:28.974Z,40.94
2018-06-07T11:48:29.007Z,40.45
2018-06-07T11:49:29.049Z,40.45
2018-06-07T11:50:29.074Z,40.16
2018-06-07T11:51:29.110Z,38.99
2018-06-07T11:52:29.195Z,38.87
2018-06-07T11:53:29.175Z,38.78
2018-06-07T11:54:29.209Z,38.97
2018-06-07T11:55:29.242Z,37.57
2018-06-07T11:56:29.297Z,37.77
2018-06-07T11:57:29.309Z,38.13
2018-06-07T11:58:29.345Z,37.84
2018-06-07T11:59:29.377Z,37.93
2018-06-07T12:00:29.408Z,36.67
2018-06-07T12:01:29.441Z,36.77
2018-06-07T12:02:29.476Z,36.08
2018-06-07T12:03:29.508Z,36.28
2018-06-07T12:04:29.541Z,36.30
2018-06-07T12:05:29.574Z,36.40
2018-06-07T12:06:29.609Z,36.80
2018-06-07T12:07:29.641Z,36.71
2018-06-07T12:08:29.674Z,37.46
2018-06-07T12:09:29.708Z,39.32
2018-06-07T12:10:29.744Z,38.92
2018-06-07T12:11:29.774Z,40.13
2018-06-07T12:12:29.858Z,41.58
2018-06-07T12:13:29.846Z,42.45
2018-06-07T12:14:29.873Z,43.80
2018-06-07T12:15:29.905Z,43.21
2018-06-07T12:16:29.941Z,44.07
2018-06-07T12:17:29.970Z,44.56
2018-06-07T12:18:30.006Z,42.76
2018-06-07T12:19:30.036Z,42.08
2018-06-07T12:20:30.068Z,41.92
2018-06-07T12:21:30.100Z,41.25
2018-06-07T12:22:30.132Z,41.27
2018-06-07T12:23:30.168Z,40.51
2018-06-07T12:24:30.197Z,38.95
2018-06-07T12:25:30.231Z,38.95
2018-06-07T12:26:30.264Z,39.00
2018-06-07T12:27:30.294Z,41.19
2018-06-07T12:28:30.326Z,41.78
2018-06-07T12:29:30.359Z,41.47
2018-06-07T12:30:30.391Z,41.84
2018-06-07T12:31:30.421Z,42.91
2018-06-07T12:32:30.455Z,42.52
2018-06-07T12:33:30.484Z,42.13
2018-06-07T12:34:30.520Z,44.38
2018-06-07T12:35:30.549Z,44.76
2018-06-07T12:36:30.583Z,44.15
2018-06-07T12:37:30.618Z,44.40
2018-06-07T12:38:30.643Z,46.31
2018-06-07T12:39:30.678Z,48.36
2018-06-07T12:40:30.828Z,47.87
2018-06-07T12:41:30.739Z,47.09
2018-06-07T12:42:30.770Z,47.38
2018-06-07T12:43:30.800Z,47.31
2018-06-07T12:44:30.831Z,46.92
2018-06-07T12:45:30.867Z,48.28
2018-06-07T12:46:30.896Z,46.82
2018-06-07T12:47:30.923Z,47.41
2018-06-07T12:48:30.954Z,47.43
2018-06-07T12:49:30.985Z,46.06
2018-06-07T12:50:31.018Z,46.18
2018-06-07T12:51:31.047Z,46.40
2018-06-07T12:52:31.077Z,46.30
2018-06-07T12:53:31.108Z,45.15
2018-06-07T12:54:31.137Z,45.17
2018-06-07T12:55:31.168Z,45.25
2018-06-07T12:56:31.197Z,44.37